Pawnee, IL (62558)

1:27 AM CDT on October 31, 2014 (GMT -0500)
RURAL KINCAID IL USA | Change Station
CLOSE
Current Station
Personal Weather Station
Location: PAWNEE, IL
Elevation: 610 ft
Nearby Weather Stations
Active Advisory: Freeze Warning

Elev 610 ft 39.57 °N, 89.43 °W | Updated 3 minutes ago

Overcast
Overcast
46.6 °F
Feels Like 47 °F
N
3.0
Wind Variable Wind from North
Gusts 3.0 mph

Today
High -- | Low -- °F
--% Chance of Precip.
Yesterday
High -- | Low -- °F
Precip. -- in
7:25 AM 5:57 PM
First Quarter, 52% visible
Pressure 30.07 in
Visibility 7.0 miles
Clouds Scattered Clouds 4000 ft
Overcast 10000 ft
Windchill 47 °F
Dew Point 40 °F
Humidity 78%
Rainfall 0.00 in
Snow Depth Not available.
UV 0 out of 12
Pollen .30 out of 12
Air Quality Not available.
Flu Activity Not available.
METAR KTAZ 310615Z AUTO 34006KT 7SM SCT040 OVC100 07/06 A3007 RMK AO2

More Conditions Fewer Conditions

Pressure 30.07 in
Visibility 7.0 miles
Clouds Scattered Clouds 4000 ft
Overcast 10000 ft
Windchill 47 °F
Dew Point 40 °F
Humidity 78%
Rainfall 0.00 in
Snow Depth Not available.
UV 0 out of 12
Pollen .30 out of 12
Air Quality Not available.
Flu Activity Not available.
METAR KTAZ 310615Z AUTO 34006KT 7SM SCT040 OVC100 07/06 A3007 RMK AO2

More Conditions Fewer Conditions

10-Day Weather Forecast

Almanac

Astronomy

Oct. 31, 2014 Rise Set
Actual Time
Civil Twilight
Nautical Twilight
Astronomical Twilight
Moon
Length of Visible Light
Length of Day
Tomorrow will be .
, % of the Moon is Illuminated

Today's Extremes

State Highs State Lows

Community

WunderPhotos

Upload Photos

1,766,571 photos uploaded!

WunderBlogs® & News

Nearby

Air Quality

  Air Quality AQ Index Pollutant
Not available.

Snow Depth

Station Depth Elevation

Earthquake Activity

City Distance Mag. Time & Date
Minimum magnitude displayed is 2.5.

Coastal Water Temperatures

Place Temperature

Nearby Weather Stations